createdAt,value
2019-03-11T00:01:05.568Z,96424.23
2019-03-11T00:02:09.041Z,96419.72
2019-03-11T00:03:11.104Z,96425.20
2019-03-11T00:04:14.357Z,96422.38
2019-03-11T00:05:16.765Z,96418.58
2019-03-11T00:06:19.079Z,96420.27
2019-03-11T00:07:21.033Z,96420.07
2019-03-11T00:08:23.459Z,96422.42
2019-03-11T00:09:26.343Z,96427.75
2019-03-11T00:10:28.507Z,96421.84
2019-03-11T00:11:30.702Z,96421.56
2019-03-11T00:12:32.389Z,96410.54
2019-03-11T00:13:34.121Z,96414.03
2019-03-11T00:14:36.461Z,96410.03
2019-03-11T00:15:38.254Z,96412.78
2019-03-11T00:16:40.521Z,96411.17
2019-03-11T00:17:42.491Z,96405.67
2019-03-11T00:18:44.158Z,96401.36
2019-03-11T00:19:45.848Z,96401.33
2019-03-11T00:20:47.904Z,96392.34
2019-03-11T00:21:49.933Z,96399.99
2019-03-11T00:22:52.013Z,96397.98
2019-03-11T00:23:53.993Z,96399.45
2019-03-11T00:24:55.980Z,96401.21
2019-03-11T00:25:58.193Z,96389.53
2019-03-11T00:27:00.179Z,96390.50
2019-03-11T00:28:02.134Z,96394.73
2019-03-11T00:29:04.187Z,96383.80
2019-03-11T00:30:10.854Z,96386.47
2019-03-11T00:31:12.562Z,96376.70
2019-03-11T00:32:14.617Z,96385.64
2019-03-11T00:33:16.351Z,96385.21
2019-03-11T00:34:18.276Z,96380.23
2019-03-11T00:35:20.187Z,96390.58
2019-03-11T00:36:22.146Z,96376.23
2019-03-11T00:37:24.194Z,96376.98
2019-03-11T00:38:26.236Z,96364.36
2019-03-11T00:39:28.278Z,96381.61
2019-03-11T00:40:30.692Z,96382.27
2019-03-11T00:41:32.636Z,96364.27
2019-03-11T00:42:35.799Z,96372.74
2019-03-11T00:43:37.817Z,96377.40
2019-03-11T00:44:41.967Z,96383.78
2019-03-11T00:45:43.796Z,96377.25
2019-03-11T00:46:45.740Z,96384.73
2019-03-11T00:47:47.658Z,96376.81
2019-03-11T00:48:49.482Z,96385.16
2019-03-11T00:49:51.554Z,96388.81
2019-03-11T00:50:53.560Z,96370.23
2019-03-11T00:51:55.274Z,96377.33
2019-03-11T00:52:57.552Z,96379.83
2019-03-11T00:53:59.712Z,96375.75
2019-03-11T00:55:02.452Z,96377.52
2019-03-11T00:56:04.553Z,96367.21
2019-03-11T00:57:07.907Z,96379.20
2019-03-11T00:58:10.113Z,96359.61
2019-03-11T00:59:12.157Z,96371.71
2019-03-11T01:00:33.476Z,96353.05
2019-03-11T01:01:35.153Z,96387.28
2019-03-11T01:02:37.219Z,96374.93
2019-03-11T01:03:38.887Z,96379.98
2019-03-11T01:04:40.654Z,96368.62
2019-03-11T01:05:42.601Z,96362.22
2019-03-11T01:06:44.578Z,96381.61
2019-03-11T01:07:46.799Z,96383.34
2019-03-11T01:08:48.911Z,96373.66
2019-03-11T01:09:51.104Z,96372.69
2019-03-11T01:10:52.961Z,96377.19
2019-03-11T01:11:55.066Z,96368.80
2019-03-11T01:12:56.883Z,96373.66
2019-03-11T01:13:58.977Z,96375.88
2019-03-11T01:15:01.269Z,96381.63
2019-03-11T01:16:04.841Z,96373.78
2019-03-11T01:17:07.265Z,96380.44
2019-03-11T01:18:09.220Z,96382.38
2019-03-11T01:19:11.056Z,96372.82
2019-03-11T01:20:13.211Z,96390.13
2019-03-11T01:21:16.398Z,96359.69
2019-03-11T01:22:18.228Z,96378.23
2019-03-11T01:23:20.277Z,96368.36
2019-03-11T01:24:23.293Z,96394.59
2019-03-11T01:25:25.186Z,96393.38
2019-03-11T01:26:27.299Z,96396.86
2019-03-11T01:27:28.995Z,96377.82
2019-03-11T01:28:30.970Z,96405.18
2019-03-11T01:29:33.152Z,96406.94
2019-03-11T01:30:34.948Z,96386.31
2019-03-11T01:31:37.035Z,96377.67
2019-03-11T01:32:38.919Z,96389.25
2019-03-11T01:33:41.033Z,96406.42
2019-03-11T01:34:43.004Z,96396.13
2019-03-11T01:35:45.015Z,96413.30
2019-03-11T01:36:47.226Z,96408.84
2019-03-11T01:37:49.248Z,96405.16
2019-03-11T01:38:51.102Z,96432.20
2019-03-11T01:39:52.860Z,96408.81
2019-03-11T01:40:54.760Z,96426.92
2019-03-11T01:41:58.480Z,96414.78
2019-03-11T01:43:00.178Z,96431.09
2019-03-11T01:44:02.528Z,96425.33
2019-03-11T01:45:09.344Z,96420.31
2019-03-11T01:46:11.220Z,96422.27
2019-03-11T01:47:13.195Z,96423.59
2019-03-11T01:48:15.416Z,96428.73
2019-03-11T01:49:17.373Z,96425.05
2019-03-11T01:50:19.422Z,96429.32
2019-03-11T01:51:21.330Z,96441.59
2019-03-11T01:52:23.524Z,96453.41
2019-03-11T01:53:25.428Z,96451.29
2019-03-11T01:54:27.465Z,96448.66
2019-03-11T01:55:29.854Z,96443.09
2019-03-11T01:56:31.714Z,96463.67
2019-03-11T01:57:33.700Z,96447.13
2019-03-11T01:58:35.641Z,96452.50
2019-03-11T01:59:37.631Z,96442.64
2019-03-11T02:00:39.927Z,96434.09
2019-03-11T02:01:42.271Z,96471.21
2019-03-11T02:02:44.227Z,96454.97
2019-03-11T02:03:45.956Z,96468.03
2019-03-11T02:04:48.003Z,96458.73
2019-03-11T02:05:50.016Z,96446.14
2019-03-11T02:06:51.742Z,96478.23
2019-03-11T02:07:53.740Z,96463.52
2019-03-11T02:08:55.821Z,96481.69
2019-03-11T02:09:57.503Z,96491.06
2019-03-11T02:10:59.446Z,96502.28
2019-03-11T02:12:01.559Z,96494.00
2019-03-11T02:13:04.697Z,96488.74
2019-03-11T02:14:06.602Z,96508.91
2019-03-11T02:15:14.919Z,96519.52
2019-03-11T02:16:16.899Z,96523.48
2019-03-11T02:17:21.007Z,96536.81
2019-03-11T02:18:22.918Z,96534.69
2019-03-11T02:19:24.969Z,96551.76
2019-03-11T02:20:26.969Z,96536.77
2019-03-11T02:21:28.948Z,96550.66
2019-03-11T02:22:31.122Z,96558.79
2019-03-11T02:23:33.270Z,96568.20
2019-03-11T02:24:34.925Z,96563.38
2019-03-11T02:25:36.864Z,96567.14
2019-03-11T02:26:39.868Z,96595.75
2019-03-11T02:27:42.151Z,96587.23
2019-03-11T02:28:44.369Z,96572.52
2019-03-11T02:29:46.252Z,96625.23
2019-03-11T02:30:48.410Z,96650.70
2019-03-11T02:31:50.823Z,96663.16
2019-03-11T02:32:52.726Z,96665.73
2019-03-11T02:33:54.572Z,96676.67
2019-03-11T02:34:56.730Z,96700.24
2019-03-11T02:35:58.866Z,96706.02
2019-03-11T02:37:00.703Z,96708.34
2019-03-11T02:38:02.804Z,96729.81
2019-03-11T02:39:06.497Z,96734.80
2019-03-11T02:40:14.665Z,96725.55
2019-03-11T02:41:18.904Z,96725.75
2019-03-11T02:42:20.897Z,96751.26
2019-03-11T02:43:22.990Z,96755.56
2019-03-11T02:44:26.177Z,96789.73
2019-03-11T02:45:27.960Z,96793.80
2019-03-11T02:46:30.357Z,96814.01
2019-03-11T02:47:32.507Z,96809.63
2019-03-11T02:48:34.526Z,96804.67
2019-03-11T02:49:36.463Z,96829.38
2019-03-11T02:50:38.569Z,96824.77
2019-03-11T02:51:40.763Z,96854.94
2019-03-11T02:52:42.976Z,96836.46
2019-03-11T02:53:44.853Z,96844.55
2019-03-11T02:54:46.698Z,96874.25
2019-03-11T02:55:50.858Z,96859.56
2019-03-11T02:56:52.486Z,96871.68
2019-03-11T02:57:55.499Z,96891.98
2019-03-11T02:58:57.576Z,96884.73
2019-03-11T02:59:59.731Z,96906.98
2019-03-11T03:01:18.724Z,96907.70
2019-03-11T03:02:39.267Z,96927.88
2019-03-11T03:03:43.391Z,96923.66
2019-03-11T03:04:47.477Z,96949.08
2019-03-11T03:05:53.036Z,96939.09
2019-03-11T03:06:54.979Z,96921.73
2019-03-11T03:07:57.227Z,96961.60
2019-03-11T03:09:00.435Z,96963.83
2019-03-11T03:10:05.197Z,96949.12
2019-03-11T03:11:07.301Z,96947.16
2019-03-11T03:12:09.374Z,96964.08
2019-03-11T03:13:11.569Z,96977.72
2019-03-11T03:14:13.968Z,96983.03
2019-03-11T03:15:16.229Z,96981.33
2019-03-11T03:16:18.664Z,96972.93
2019-03-11T03:17:22.291Z,96989.73
2019-03-11T03:18:24.347Z,96993.80
2019-03-11T03:19:26.213Z,97013.31
2019-03-11T03:20:28.279Z,97010.66
2019-03-11T03:21:30.379Z,97012.28
2019-03-11T03:22:32.395Z,97011.53
2019-03-11T03:23:34.291Z,97023.20
2019-03-11T03:24:36.760Z,97012.15
2019-03-11T03:25:39.024Z,97020.13
2019-03-11T03:26:41.059Z,97049.13
2019-03-11T03:27:43.301Z,97048.05
2019-03-11T03:28:45.467Z,97050.82
2019-03-11T03:29:47.401Z,97053.66
2019-03-11T03:30:49.269Z,97054.48
2019-03-11T03:31:51.280Z,97054.03
2019-03-11T03:32:53.385Z,97039.78
2019-03-11T03:33:55.176Z,97054.41
2019-03-11T03:34:57.131Z,97081.53
2019-03-11T03:35:58.968Z,97086.01
2019-03-11T03:37:00.766Z,97085.50
2019-03-11T03:38:03.070Z,97097.19
2019-03-11T03:39:06.371Z,97099.85
2019-03-11T03:40:10.878Z,97099.73
2019-03-11T03:41:12.748Z,97104.01
2019-03-11T03:42:14.641Z,97107.20
2019-03-11T03:43:17.521Z,97120.14
2019-03-11T03:44:19.643Z,97109.08
2019-03-11T03:45:34.808Z,97123.16
2019-03-11T03:46:36.842Z,97117.39
2019-03-11T03:47:38.808Z,97134.56
2019-03-11T03:48:40.740Z,97119.76
2019-03-11T03:49:42.641Z,97141.83
2019-03-11T03:50:44.620Z,97132.22
2019-03-11T03:51:46.474Z,97127.82
2019-03-11T03:52:48.640Z,97148.80
2019-03-11T03:53:50.942Z,97148.36
2019-03-11T03:54:52.754Z,97156.42
2019-03-11T03:55:54.890Z,97154.70
2019-03-11T03:56:56.805Z,97152.43
2019-03-11T03:57:58.609Z,97155.47
2019-03-11T03:59:00.625Z,97155.74
2019-03-11T04:00:05.614Z,97162.48
2019-03-11T04:01:09.123Z,97158.13
2019-03-11T04:02:11.289Z,97157.48
2019-03-11T04:03:13.239Z,97177.45
2019-03-11T04:04:14.932Z,97178.67
2019-03-11T04:05:17.128Z,97187.23
2019-03-11T04:06:20.763Z,97188.47
2019-03-11T04:07:22.740Z,97186.63
2019-03-11T04:08:24.816Z,97194.55
2019-03-11T04:09:26.541Z,97205.61
2019-03-11T04:10:32.333Z,97196.39
2019-03-11T04:11:32.637Z,97198.72
2019-03-11T04:12:34.931Z,97199.77
2019-03-11T04:13:36.777Z,97212.61
2019-03-11T04:14:38.664Z,97214.84
2019-03-11T04:15:40.853Z,97211.12
2019-03-11T04:16:42.919Z,97212.13
2019-03-11T04:17:45.136Z,97210.87
2019-03-11T04:18:52.004Z,97221.39
2019-03-11T04:19:55.264Z,97235.56
2019-03-11T04:20:57.489Z,97221.48
2019-03-11T04:21:59.434Z,97220.86
2019-03-11T04:23:01.425Z,97226.42
2019-03-11T04:24:03.979Z,97240.39
2019-03-11T04:25:08.399Z,97242.09
2019-03-11T04:26:10.629Z,97247.34
2019-03-11T04:27:12.984Z,97235.75
2019-03-11T04:28:14.674Z,97242.02
2019-03-11T04:29:16.681Z,97244.09
2019-03-11T04:30:23.194Z,97255.11
2019-03-11T04:31:25.115Z,97266.46
2019-03-11T04:32:27.105Z,97266.13
2019-03-11T04:33:29.047Z,97256.58
2019-03-11T04:34:31.113Z,97266.55
2019-03-11T04:35:33.092Z,97255.08
2019-03-11T04:36:35.371Z,97264.27
2019-03-11T04:37:37.025Z,97275.74
2019-03-11T04:38:39.085Z,97268.94
2019-03-11T04:39:41.079Z,97280.05
2019-03-11T04:40:42.962Z,97287.16
2019-03-11T04:41:44.954Z,97284.36
2019-03-11T04:42:46.833Z,97286.58
2019-03-11T04:43:48.909Z,97295.41
2019-03-11T04:44:51.639Z,97292.37
2019-03-11T04:45:53.426Z,97288.75
2019-03-11T04:46:55.408Z,97303.69
2019-03-11T04:47:57.829Z,97314.05
2019-03-11T04:48:59.478Z,97293.53
2019-03-11T04:50:02.549Z,97299.23
2019-03-11T04:51:04.820Z,97308.41
2019-03-11T04:52:06.748Z,97305.16
2019-03-11T04:53:08.830Z,97308.45
2019-03-11T04:54:10.666Z,97317.47
2019-03-11T04:55:15.176Z,97318.19
2019-03-11T04:56:17.035Z,97318.13
2019-03-11T04:57:19.392Z,97320.43
2019-03-11T04:58:21.452Z,97318.67
2019-03-11T04:59:23.580Z,97324.59
2019-03-11T05:00:31.489Z,97318.23
2019-03-11T05:01:33.512Z,97317.89
2019-03-11T05:02:35.356Z,97328.63
2019-03-11T05:03:37.252Z,97320.39
2019-03-11T05:04:39.294Z,97325.50
2019-03-11T05:05:41.302Z,97320.55
2019-03-11T05:06:43.126Z,97332.87
2019-03-11T05:07:45.163Z,97332.58
2019-03-11T05:08:47.094Z,97335.55
2019-03-11T05:09:49.089Z,97333.37
2019-03-11T05:10:51.071Z,97347.09
2019-03-11T05:11:55.205Z,97335.52
2019-03-11T05:12:57.273Z,97336.03
2019-03-11T05:13:59.125Z,97346.91
2019-03-11T05:15:01.431Z,97346.55
2019-03-11T05:16:03.246Z,97342.71
2019-03-11T05:17:05.330Z,97355.84
2019-03-11T05:18:07.003Z,97355.02
2019-03-11T05:19:09.989Z,97358.69
2019-03-11T05:20:15.807Z,97356.91
2019-03-11T05:21:17.881Z,97360.78
2019-03-11T05:22:19.751Z,97360.04
2019-03-11T05:23:21.825Z,97365.98
2019-03-11T05:24:23.505Z,97365.33
2019-03-11T05:25:25.601Z,97373.70
2019-03-11T05:26:27.808Z,97378.45
2019-03-11T05:27:29.661Z,97376.41
2019-03-11T05:28:31.611Z,97380.25
2019-03-11T05:29:33.575Z,97388.70
2019-03-11T05:30:35.563Z,97386.95
2019-03-11T05:31:39.659Z,97391.66
2019-03-11T05:32:41.821Z,97401.16
2019-03-11T05:33:43.561Z,97410.35
2019-03-11T05:34:46.477Z,97409.39
2019-03-11T05:35:50.556Z,97411.64
2019-03-11T05:36:52.217Z,97405.77
2019-03-11T05:37:54.252Z,97423.27
2019-03-11T05:38:56.323Z,97421.43
2019-03-11T05:39:57.975Z,97424.97
2019-03-11T05:41:00.171Z,97428.26
2019-03-11T05:42:03.660Z,97428.63
2019-03-11T05:43:05.551Z,97438.26
2019-03-11T05:44:07.746Z,97442.64
2019-03-11T05:45:16.076Z,97446.64
2019-03-11T05:46:17.942Z,97436.05
2019-03-11T05:47:20.011Z,97450.92
2019-03-11T05:48:21.994Z,97448.21
2019-03-11T05:49:24.012Z,97452.55
2019-03-11T05:50:25.943Z,97461.59
2019-03-11T05:51:31.981Z,97458.62
2019-03-11T05:52:32.074Z,97465.88
2019-03-11T05:53:34.934Z,97463.75
2019-03-11T05:54:36.580Z,97461.09
2019-03-11T05:55:38.806Z,97462.58
2019-03-11T05:56:41.014Z,97463.05
2019-03-11T05:57:43.310Z,97462.76
2019-03-11T05:58:45.302Z,97460.26
2019-03-11T05:59:47.730Z,97474.91
2019-03-11T06:00:49.425Z,97463.45
2019-03-11T06:01:51.553Z,97469.23
2019-03-11T06:02:53.700Z,97465.63
2019-03-11T06:03:55.542Z,97468.08
2019-03-11T06:04:57.551Z,97468.38
2019-03-11T06:05:59.607Z,97475.63
2019-03-11T06:07:01.322Z,97472.24
2019-03-11T06:08:03.386Z,97480.30
2019-03-11T06:09:05.854Z,97481.13
2019-03-11T06:10:11.002Z,97482.04
2019-03-11T06:11:13.005Z,97483.45
2019-03-11T06:12:14.993Z,97484.55
2019-03-11T06:13:16.983Z,97484.34
2019-03-11T06:14:19.206Z,97476.92
2019-03-11T06:15:21.177Z,97497.84
2019-03-11T06:16:23.346Z,97490.96
2019-03-11T06:17:25.315Z,97502.96
2019-03-11T06:18:38.091Z,97500.37
2019-03-11T06:19:40.117Z,97486.51
2019-03-11T06:20:43.875Z,97496.46
2019-03-11T06:21:47.755Z,97495.42
2019-03-11T06:22:50.473Z,97493.55
2019-03-11T06:23:52.457Z,97498.97
2019-03-11T06:24:54.152Z,97504.92
2019-03-11T06:25:56.102Z,97494.25
2019-03-11T06:26:57.965Z,97498.05
2019-03-11T06:27:59.842Z,97502.09
2019-03-11T06:29:01.713Z,97501.59
2019-03-11T06:30:09.013Z,97503.75
2019-03-11T06:31:10.867Z,97508.84
2019-03-11T06:32:12.836Z,97507.30
2019-03-11T06:33:14.620Z,97509.97
2019-03-11T06:34:16.511Z,97519.09
2019-03-11T06:35:18.506Z,97517.55
2019-03-11T06:36:20.383Z,97511.92
2019-03-11T06:37:22.120Z,97517.84
2019-03-11T06:38:24.136Z,97517.09
2019-03-11T06:39:26.017Z,97518.88
2019-03-11T06:40:28.233Z,97517.92
2019-03-11T06:41:30.209Z,97524.09
2019-03-11T06:42:32.100Z,97523.77
2019-03-11T06:43:35.216Z,97521.09
2019-03-11T06:44:37.152Z,97524.59
2019-03-11T06:45:40.328Z,97519.76
2019-03-11T06:46:42.216Z,97514.54
2019-03-11T06:47:44.186Z,97522.33
2019-03-11T06:48:46.288Z,97524.91
2019-03-11T06:49:48.368Z,97518.88
2019-03-11T06:50:50.272Z,97513.25
2019-03-11T06:51:52.055Z,97517.01
2019-03-11T06:52:54.054Z,97515.09
2019-03-11T06:53:56.220Z,97510.92
2019-03-11T06:54:57.848Z,97501.80
2019-03-11T06:55:59.791Z,97500.76
2019-03-11T06:57:02.156Z,97497.30
2019-03-11T06:58:04.290Z,97506.92
2019-03-11T06:59:06.228Z,97503.59
2019-03-11T07:00:21.104Z,97497.26
2019-03-11T07:01:22.982Z,97494.37
2019-03-11T07:02:26.207Z,97494.13
2019-03-11T07:03:27.892Z,97497.17
2019-03-11T07:04:29.741Z,97497.88
2019-03-11T07:05:31.592Z,97495.05
2019-03-11T07:06:33.822Z,97491.05
2019-03-11T07:07:35.823Z,97477.95
2019-03-11T07:08:40.001Z,97482.67
2019-03-11T07:09:41.789Z,97481.95
2019-03-11T07:10:43.714Z,97486.33
2019-03-11T07:11:45.761Z,97488.83
2019-03-11T07:12:47.979Z,97493.20
2019-03-11T07:13:49.901Z,97495.66
2019-03-11T07:14:52.067Z,97506.63
2019-03-11T07:15:54.183Z,97514.62
2019-03-11T07:16:56.339Z,97517.08
2019-03-11T07:17:58.567Z,97523.30
2019-03-11T07:19:00.361Z,97528.71
2019-03-11T07:20:10.427Z,97534.75
2019-03-11T07:21:12.319Z,97531.42
2019-03-11T07:22:14.660Z,97544.47
2019-03-11T07:23:16.826Z,97541.64
2019-03-11T07:24:18.635Z,97552.48
2019-03-11T07:25:20.379Z,97557.09
2019-03-11T07:26:22.267Z,97565.98
2019-03-11T07:27:24.338Z,97562.60
2019-03-11T07:28:26.373Z,97569.86
2019-03-11T07:29:28.245Z,97570.45
2019-03-11T07:30:30.207Z,97580.19
2019-03-11T07:31:32.441Z,97577.02
2019-03-11T07:32:34.383Z,97580.52
2019-03-11T07:33:36.348Z,97590.23
2019-03-11T07:34:38.311Z,97588.36
2019-03-11T07:35:40.471Z,97589.78
2019-03-11T07:36:42.218Z,97592.75
2019-03-11T07:37:44.260Z,97595.20
2019-03-11T07:38:46.114Z,97596.62
2019-03-11T07:39:47.808Z,97601.75
2019-03-11T07:40:50.022Z,97591.66
2019-03-11T07:41:51.910Z,97601.83
2019-03-11T07:42:54.026Z,97594.13
2019-03-11T07:43:56.412Z,97596.88
2019-03-11T07:44:58.402Z,97600.58
2019-03-11T07:46:00.092Z,97600.13
2019-03-11T07:47:02.073Z,97600.95
2019-03-11T07:48:05.246Z,97596.66
2019-03-11T07:49:07.544Z,97602.88
2019-03-11T07:50:11.991Z,97601.04
2019-03-11T07:51:14.084Z,97598.95
2019-03-11T07:52:15.883Z,97601.63
2019-03-11T07:53:17.807Z,97606.97
2019-03-11T07:54:19.710Z,97604.91
2019-03-11T07:55:21.539Z,97615.14
2019-03-11T07:56:23.420Z,97607.50
2019-03-11T07:57:25.420Z,97614.92
2019-03-11T07:58:27.463Z,97603.05
2019-03-11T07:59:29.434Z,97609.42
2019-03-11T08:00:31.100Z,97616.17
2019-03-11T08:01:33.229Z,97599.04
2019-03-11T08:02:35.290Z,97619.73
2019-03-11T08:03:37.249Z,97609.30
2019-03-11T08:04:39.107Z,97616.92
2019-03-11T08:05:41.017Z,97610.92
2019-03-11T08:06:44.069Z,97606.09
2019-03-11T08:07:46.459Z,97609.05
2019-03-11T08:08:48.919Z,97605.58
2019-03-11T08:09:50.905Z,97614.92
2019-03-11T08:10:52.875Z,97620.27
2019-03-11T08:11:54.858Z,97607.05
2019-03-11T08:12:56.863Z,97617.80
2019-03-11T08:13:58.633Z,97618.64
2019-03-11T08:15:00.506Z,97611.67
2019-03-11T08:16:02.465Z,97621.89
2019-03-11T08:17:05.483Z,97620.55
2019-03-11T08:18:07.446Z,97622.48
2019-03-11T08:19:09.784Z,97624.14
2019-03-11T08:20:14.781Z,97623.09
2019-03-11T08:21:16.639Z,97621.77
2019-03-11T08:22:18.786Z,97622.72
2019-03-11T08:23:20.746Z,97623.22
2019-03-11T08:24:22.402Z,97623.73
2019-03-11T08:25:24.538Z,97622.48
2019-03-11T08:26:26.663Z,97625.06
2019-03-11T08:27:28.740Z,97623.73
2019-03-11T08:28:30.434Z,97629.91
2019-03-11T08:29:32.452Z,97626.41
2019-03-11T08:30:34.558Z,97633.91
2019-03-11T08:31:36.505Z,97634.20
2019-03-11T08:32:38.512Z,97631.73
2019-03-11T08:33:41.482Z,97636.36
2019-03-11T08:34:45.586Z,97640.66
2019-03-11T08:35:48.648Z,97641.16
2019-03-11T08:36:50.441Z,97643.83
2019-03-11T08:37:52.521Z,97640.66
2019-03-11T08:38:54.383Z,97646.30
2019-03-11T08:39:56.141Z,97639.41
2019-03-11T08:40:58.202Z,97642.99
2019-03-11T08:42:00.405Z,97635.78
2019-03-11T08:43:03.700Z,97640.91
2019-03-11T08:44:05.846Z,97648.92
2019-03-11T08:45:14.351Z,97646.25
2019-03-11T08:46:16.608Z,97646.03
2019-03-11T08:47:18.515Z,97649.59
2019-03-11T08:48:20.379Z,97644.78
2019-03-11T08:49:22.545Z,97653.17
2019-03-11T08:50:24.445Z,97649.16
2019-03-11T08:51:26.423Z,97652.92
2019-03-11T08:52:28.133Z,97648.70
2019-03-11T08:53:30.070Z,97657.25
2019-03-11T08:54:31.805Z,97650.34
2019-03-11T08:55:35.465Z,97656.50
2019-03-11T08:56:37.965Z,97656.80
2019-03-11T08:57:41.713Z,97662.76
2019-03-11T08:58:43.443Z,97659.26
2019-03-11T08:59:45.395Z,97666.02
2019-03-11T09:00:47.095Z,97659.34
2019-03-11T09:01:48.931Z,97658.51
2019-03-11T09:02:51.016Z,97667.43
2019-03-11T09:03:52.869Z,97669.27
2019-03-11T09:04:54.824Z,97666.89
2019-03-11T09:05:57.056Z,97665.88
2019-03-11T09:06:59.145Z,97671.81
2019-03-11T09:08:02.031Z,97669.27
2019-03-11T09:09:05.689Z,97670.91
2019-03-11T09:10:13.279Z,97666.17
2019-03-11T09:11:16.322Z,97668.55
2019-03-11T09:12:18.511Z,97654.16
2019-03-11T09:13:20.293Z,97664.55
2019-03-11T09:14:22.452Z,97649.11
2019-03-11T09:15:25.429Z,97654.95
2019-03-11T09:16:27.945Z,97654.16
2019-03-11T09:17:30.071Z,97657.62
2019-03-11T09:18:31.761Z,97647.70
2019-03-11T09:19:33.858Z,97645.51
2019-03-11T09:20:36.177Z,97653.04
2019-03-11T09:21:38.704Z,97647.11
2019-03-11T09:22:41.028Z,97643.19
2019-03-11T09:23:42.979Z,97639.68
2019-03-11T09:24:44.902Z,97641.31
2019-03-11T09:25:46.907Z,97638.13
2019-03-11T09:26:48.964Z,97636.80
2019-03-11T09:27:51.382Z,97627.56
2019-03-11T09:28:53.413Z,97634.84
2019-03-11T09:29:55.284Z,97626.84
2019-03-11T09:30:58.102Z,97627.88
2019-03-11T09:32:00.198Z,97620.62
2019-03-11T09:33:02.056Z,97619.06
2019-03-11T09:34:04.144Z,97620.70
2019-03-11T09:35:07.290Z,97622.03
2019-03-11T09:36:09.194Z,97613.94
2019-03-11T09:37:11.087Z,97625.45
2019-03-11T09:38:13.184Z,97618.02
2019-03-11T09:39:15.490Z,97620.48
2019-03-11T09:40:20.590Z,97626.62
2019-03-11T09:41:22.650Z,97623.02
2019-03-11T09:42:24.515Z,97619.55
2019-03-11T09:43:27.291Z,97608.48
2019-03-11T09:44:29.347Z,97623.02
2019-03-11T09:45:31.410Z,97627.16
2019-03-11T09:46:33.314Z,97621.28
2019-03-11T09:47:35.310Z,97621.06
2019-03-11T09:48:37.032Z,97618.72
2019-03-11T09:49:39.098Z,97620.89
2019-03-11T09:50:42.235Z,97616.34
2019-03-11T09:51:44.671Z,97620.35
2019-03-11T09:52:46.712Z,97616.34
2019-03-11T09:53:48.924Z,97619.62
2019-03-11T09:54:50.952Z,97608.11
2019-03-11T09:55:53.055Z,97618.51
2019-03-11T09:56:55.009Z,97613.24
2019-03-11T09:57:57.001Z,97610.20
2019-03-11T09:58:58.870Z,97611.22
2019-03-11T10:00:00.852Z,97617.95
2019-03-11T10:01:02.648Z,97615.27
2019-03-11T10:02:05.009Z,97621.88
2019-03-11T10:03:06.979Z,97604.14
2019-03-11T10:04:09.155Z,97613.65
2019-03-11T10:05:11.881Z,97616.75
2019-03-11T10:06:14.236Z,97612.52
2019-03-11T10:07:16.057Z,97618.70
2019-03-11T10:08:18.032Z,97607.13
2019-03-11T10:09:20.164Z,97610.90
2019-03-11T10:10:30.159Z,97621.20
2019-03-11T10:11:32.132Z,97627.27
2019-03-11T10:12:34.323Z,97628.89
2019-03-11T10:13:36.309Z,97625.30
2019-03-11T10:14:38.214Z,97626.38
2019-03-11T10:15:39.887Z,97617.81
2019-03-11T10:16:42.032Z,97622.70
2019-03-11T10:17:44.200Z,97624.33
2019-03-11T10:18:46.013Z,97605.18
2019-03-11T10:19:48.011Z,97610.81
2019-03-11T10:20:49.995Z,97598.77
2019-03-11T10:21:51.678Z,97599.91
2019-03-11T10:22:53.859Z,97593.16
2019-03-11T10:23:56.048Z,97598.50
2019-03-11T10:24:57.709Z,97591.03
2019-03-11T10:25:59.839Z,97587.69
2019-03-11T10:27:02.132Z,97591.75
2019-03-11T10:28:05.186Z,97594.80
2019-03-11T10:29:07.365Z,97607.78
2019-03-11T10:30:22.896Z,97595.02
2019-03-11T10:31:24.912Z,97602.81
2019-03-11T10:32:27.058Z,97602.52
2019-03-11T10:33:28.964Z,97600.14
2019-03-11T10:34:31.110Z,97609.03
2019-03-11T10:35:33.252Z,97621.88
2019-03-11T10:36:35.374Z,97603.90
2019-03-11T10:37:37.658Z,97614.02
2019-03-11T10:38:39.794Z,97616.69
2019-03-11T10:39:41.442Z,97610.02
2019-03-11T10:40:43.684Z,97604.97
2019-03-11T10:41:45.658Z,97623.16
2019-03-11T10:42:47.713Z,97612.88
2019-03-11T10:43:49.700Z,97612.14
2019-03-11T10:44:51.709Z,97597.70
2019-03-11T10:45:53.811Z,97619.87
2019-03-11T10:46:55.868Z,97613.57
2019-03-11T10:47:57.774Z,97600.08
2019-03-11T10:48:59.550Z,97603.69
2019-03-11T10:50:01.949Z,97599.09
2019-03-11T10:51:04.089Z,97601.98
2019-03-11T10:52:07.384Z,97596.05
2019-03-11T10:53:09.555Z,97587.83
2019-03-11T10:54:11.696Z,97594.42
2019-03-11T10:55:16.894Z,97593.02
2019-03-11T10:56:18.995Z,97598.64
2019-03-11T10:57:21.105Z,97588.39
2019-03-11T10:58:23.250Z,97596.73
2019-03-11T10:59:25.346Z,97603.40
2019-03-11T11:00:32.057Z,97605.23
2019-03-11T11:01:33.789Z,97597.02
2019-03-11T11:02:35.948Z,97609.83
2019-03-11T11:03:38.073Z,97603.08
2019-03-11T11:04:40.131Z,97608.73
2019-03-11T11:05:42.393Z,97607.61
2019-03-11T11:06:44.349Z,97614.38
2019-03-11T11:07:48.009Z,97611.70
2019-03-11T11:08:50.173Z,97605.32
2019-03-11T11:09:51.963Z,97610.20
2019-03-11T11:10:53.876Z,97611.53
2019-03-11T11:11:56.025Z,97605.19
2019-03-11T11:12:57.843Z,97614.61
2019-03-11T11:13:59.889Z,97605.02
2019-03-11T11:15:08.628Z,97605.84
2019-03-11T11:16:10.783Z,97600.00
2019-03-11T11:17:13.032Z,97603.27
2019-03-11T11:18:14.994Z,97609.94
2019-03-11T11:19:16.772Z,97607.27
2019-03-11T11:20:20.330Z,97611.06
2019-03-11T11:21:22.655Z,97615.14
2019-03-11T11:22:24.736Z,97619.44
2019-03-11T11:23:26.820Z,97615.94
2019-03-11T11:24:28.607Z,97609.27
2019-03-11T11:25:32.472Z,97619.02
2019-03-11T11:26:34.462Z,97612.88
2019-03-11T11:27:36.635Z,97605.98
2019-03-11T11:28:38.781Z,97605.23
2019-03-11T11:29:40.810Z,97606.56
2019-03-11T11:30:44.711Z,97607.98
2019-03-11T11:31:46.684Z,97598.42
2019-03-11T11:32:49.303Z,97589.36
2019-03-11T11:33:51.167Z,97595.82
2019-03-11T11:34:52.839Z,97598.25
2019-03-11T11:35:55.194Z,97594.86
2019-03-11T11:36:57.312Z,97589.27
2019-03-11T11:37:59.466Z,97591.94
2019-03-11T11:39:01.473Z,97595.66
2019-03-11T11:40:13.154Z,97589.59
2019-03-11T11:41:16.584Z,97603.23
2019-03-11T11:42:18.823Z,97600.86
2019-03-11T11:43:20.513Z,97603.45
2019-03-11T11:44:22.649Z,97593.89
2019-03-11T11:45:26.165Z,97600.03
2019-03-11T11:46:28.088Z,97597.36
2019-03-11T11:47:30.279Z,97601.69
2019-03-11T11:48:31.985Z,97606.49
2019-03-11T11:49:34.907Z,97597.14
2019-03-11T11:50:46.257Z,97600.11
2019-03-11T11:51:48.145Z,97587.50
2019-03-11T11:52:50.703Z,97601.98
2019-03-11T11:53:52.975Z,97596.64
2019-03-11T11:54:55.791Z,97588.62
2019-03-11T11:55:58.271Z,97593.67
2019-03-11T11:57:00.607Z,97597.53
2019-03-11T11:58:02.425Z,97590.77
2019-03-11T11:59:04.435Z,97597.61
2019-03-11T12:00:24.753Z,97598.92
2019-03-11T12:01:26.898Z,97598.25
2019-03-11T12:02:29.087Z,97605.00
2019-03-11T12:03:30.880Z,97591.41
2019-03-11T12:04:33.565Z,97612.28
2019-03-11T12:05:35.729Z,97604.11
2019-03-11T12:06:38.218Z,97605.23
2019-03-11T12:07:40.507Z,97611.08
2019-03-11T12:08:42.782Z,97611.08
2019-03-11T12:09:44.811Z,97611.08
2019-03-11T12:10:46.926Z,97604.48
2019-03-11T12:11:49.061Z,97602.19
2019-03-11T12:12:51.710Z,97593.23
2019-03-11T12:13:53.976Z,97593.73
2019-03-11T12:14:55.923Z,97587.22